Time;durP1;ratioP1;P1;durP2;ratioP2;P2;SDS_P1;SDS_P2;PMS_P1;PMS_P2;Temp;Humidity;BMP_temperature;BMP_pressure;BME280_temperature;BME280_humidity;BME280_pressure;Samples;Min_cycle;Max_cycle;Signal;HPM_P1;HPM_P2
2021/12/15 00:01:28;;;;;;;19.33;10.85;;;8.30;99.90;;;;;;5035874;28;20022;-76
2021/12/15 00:03:54;;;;;;;16.40;9.43;;;8.40;99.90;;;;;;5035736;28;20504;-74
2021/12/15 00:06:21;;;;;;;14.32;8.43;;;8.30;99.90;;;;;;5035732;28;20022;-75
2021/12/15 00:08:53;;;;;;;15.75;8.00;;;8.30;99.90;;;;;;5035721;28;20121;-75
2021/12/15 00:11:20;;;;;;;13.82;8.07;;;8.10;99.90;;;;;;5034079;28;20409;-76
2021/12/15 00:13:47;;;;;;;15.63;9.40;;;8.10;99.90;;;;;;5035501;28;20111;-76
2021/12/15 00:16:15;;;;;;;13.93;8.30;;;8.30;99.90;;;;;;5035559;28;20021;-76
2021/12/15 00:18:42;;;;;;;14.48;8.63;;;8.20;99.90;;;;;;5035496;28;20539;-78
2021/12/15 00:21:10;;;;;;;15.48;8.80;;;8.20;99.90;;;;;;5035536;28;20504;-79
2021/12/15 00:23:38;;;;;;;15.65;8.55;;;7.90;99.90;;;;;;5035381;28;20056;-77
2021/12/15 00:26:03;;;;;;;13.25;7.28;;;8.00;99.90;;;;;;5034100;28;20029;-74
2021/12/15 00:28:29;;;;;;;12.68;7.07;;;8.20;99.90;;;;;;5035127;28;20049;-76
2021/12/15 00:30:55;;;;;;;15.35;8.35;;;8.20;99.90;;;;;;5035281;28;20563;-76
2021/12/15 00:33:21;;;;;;;14.25;8.35;;;8.30;99.90;;;;;;5035176;28;20044;-75
2021/12/15 00:35:46;;;;;;;12.45;7.70;;;8.40;99.90;;;;;;5035484;28;20482;-75
2021/12/15 00:38:13;;;;;;;14.30;8.18;;;8.50;99.90;;;;;;5035132;28;20025;-74
2021/12/15 00:40:38;;;;;;;13.68;8.35;;;8.40;99.90;;;;;;5035060;28;20510;-73
2021/12/15 00:43:04;;;;;;;17.55;8.45;;;8.20;99.90;;;;;;5035044;28;20033;-74
2021/12/15 00:45:30;;;;;;;16.73;8.27;;;8.20;99.90;;;;;;5034981;28;20436;-78
2021/12/15 00:47:57;;;;;;;16.42;8.60;;;8.00;99.90;;;;;;5033658;28;20529;-73
2021/12/15 00:50:28;;;;;;;19.55;9.52;;;8.00;99.90;;;;;;5034901;28;20040;-75
2021/12/15 00:52:54;;;;;;;14.13;8.13;;;8.00;99.90;;;;;;5035101;28;20053;-76
2021/12/15 00:55:23;;;;;;;17.15;9.57;;;8.10;99.90;;;;;;5034824;28;20397;-74
2021/12/15 00:57:49;;;;;;;16.27;9.20;;;8.00;99.90;;;;;;5032793;28;20029;-77
2021/12/15 01:00:20;;;;;;;17.65;9.73;;;8.10;99.90;;;;;;5034378;28;20025;-76
2021/12/15 01:02:47;;;;;;;16.52;9.07;;;8.00;99.90;;;;;;5035008;28;20025;-76
2021/12/15 01:05:14;;;;;;;13.90;7.90;;;7.90;99.90;;;;;;5035186;28;20382;-74
2021/12/15 01:07:40;;;;;;;12.55;6.72;;;8.00;99.90;;;;;;5034579;28;20022;-76
2021/12/15 01:10:08;;;;;;;13.90;6.75;;;7.70;99.90;;;;;;5033270;28;20052;-74
2021/12/15 01:20:56;;;;;;;12.90;6.95;;;7.90;99.90;;;;;;5034883;28;20480;-74
2021/12/15 01:23:27;;;;;;;15.25;7.22;;;8.00;99.90;;;;;;5034472;28;20030;-76
2021/12/15 01:26:25;;;;;;;13.30;7.00;;;7.90;99.90;;;;;;5034532;28;20112;-76
2021/12/15 01:28:51;;;;;;;10.77;6.05;;;7.70;99.90;;;;;;5043772;28;20048;-75
2021/12/15 01:31:16;;;;;;;13.82;7.22;;;7.60;99.90;;;;;;5034144;28;20029;-77
2021/12/15 01:33:42;;;;;;;11.63;7.20;;;7.50;99.90;;;;;;5034042;28;20029;-75
2021/12/15 01:36:09;;;;;;;12.68;6.60;;;7.50;99.90;;;;;;5034004;28;20041;-76
2021/12/15 01:38:37;;;;;;;13.18;7.50;;;7.50;99.90;;;;;;5033993;28;20024;-76
2021/12/15 01:41:06;;;;;;;13.20;7.68;;;7.60;99.90;;;;;;5033888;28;20104;-78
2021/12/15 01:49:19;;;;;;;13.90;7.22;;;7.80;99.90;;;;;;5034113;28;20111;-77
2021/12/15 01:51:45;;;;;;;13.48;7.32;;;7.80;99.90;;;;;;5034290;28;20044;-78
2021/12/15 01:54:12;;;;;;;13.88;7.82;;;7.90;99.90;;;;;;5033964;28;20029;-78
2021/12/15 01:56:38;;;;;;;14.98;8.63;;;7.90;99.90;;;;;;5033711;28;20417;-74
2021/12/15 01:59:05;;;;;;;15.68;8.60;;;7.90;99.90;;;;;;5033713;28;20389;-74
2021/12/15 02:01:32;;;;;;;15.15;8.80;;;7.80;99.90;;;;;;5033655;28;20044;-75
2021/12/15 02:03:58;;;;;;;16.15;8.70;;;7.80;99.90;;;;;;5033568;28;20017;-75
2021/12/15 02:06:25;;;;;;;15.32;8.27;;;7.80;99.90;;;;;;5033793;28;20060;-75
2021/12/15 02:08:51;;;;;;;14.98;8.43;;;7.90;99.90;;;;;;5033958;28;20034;-76
2021/12/15 02:11:17;;;;;;;16.60;9.13;;;8.00;99.90;;;;;;5033517;28;20466;-75
2021/12/15 02:13:43;;;;;;;17.20;9.30;;;8.00;99.90;;;;;;5033397;28;20025;-75
2021/12/15 02:16:09;;;;;;;16.15;8.60;;;8.00;99.90;;;;;;5033936;28;20053;-78
2021/12/15 02:18:41;;;;;;;16.15;9.45;;;8.00;99.90;;;;;;5033396;28;20504;-77
2021/12/15 02:21:17;;;;;;;19.35;10.35;;;8.00;99.90;;;;;;5033435;28;20028;-76
2021/12/15 02:23:48;;;;;;;17.75;9.48;;;7.90;99.90;;;;;;5033559;28;20108;-76
2021/12/15 02:26:18;;;;;;;14.85;8.85;;;8.00;99.90;;;;;;5031798;28;20040;-78
2021/12/15 02:28:58;;;;;;;16.85;9.07;;;8.10;99.90;;;;;;5033091;28;20045;-76
2021/12/15 02:31:51;;;;;;;16.80;9.23;;;8.10;99.90;;;;;;5033596;28;20033;-76
2021/12/15 02:39:32;;;;;;;19.08;10.35;;;8.10;99.90;;;;;;5033481;28;20075;-74
2021/12/15 02:41:58;;;;;;;18.83;9.93;;;8.00;99.90;;;;;;5033123;28;20009;-77
2021/12/15 02:44:24;;;;;;;16.27;9.85;;;7.90;99.90;;;;;;5033668;28;20036;-78
2021/12/15 02:46:52;;;;;;;17.42;10.13;;;8.00;99.90;;;;;;5033130;28;20163;-75
2021/12/15 02:49:22;;;;;;;17.77;10.18;;;8.00;99.90;;;;;;5033153;28;20056;-78
2021/12/15 02:51:50;;;;;;;16.92;9.60;;;8.10;99.90;;;;;;5033156;28;20103;-77
2021/12/15 02:54:17;;;;;;;19.10;10.07;;;8.10;99.90;;;;;;5033246;28;20040;-76
2021/12/15 02:56:44;;;;;;;23.15;12.10;;;8.10;99.90;;;;;;5033078;28;20042;-79
2021/12/15 02:59:13;;;;;;;19.27;11.07;;;7.90;99.90;;;;;;5033501;28;20018;-76
2021/12/15 03:02:08;;;;;;;20.63;11.95;;;7.90;99.90;;;;;;5031713;28;20050;-78
2021/12/15 03:05:00;;;;;;;20.98;11.10;;;7.90;99.90;;;;;;5033235;28;20029;-77
2021/12/15 03:15:42;;;;;;;18.75;10.90;;;7.80;99.90;;;;;;5032594;28;20520;-76
2021/12/15 03:18:17;;;;;;;20.70;10.57;;;7.80;99.90;;;;;;5032856;28;20022;-74
2021/12/15 03:20:58;;;;;;;22.05;10.98;;;7.70;99.90;;;;;;5032832;28;20026;-78
2021/12/15 03:23:39;;;;;;;19.17;10.57;;;7.70;99.90;;;;;;5036484;28;20025;-78
2021/12/15 03:26:06;;;;;;;19.48;10.15;;;7.80;99.90;;;;;;5036529;28;20025;-75
2021/12/15 03:36:40;;;;;;;23.15;11.68;;;7.90;99.90;;;;;;5036922;28;20064;-76
2021/12/15 03:39:09;;;;;;;17.63;10.10;;;7.90;99.90;;;;;;5036615;28;20072;-79
2021/12/15 03:41:35;;;;;;;18.15;10.20;;;8.00;99.90;;;;;;5036745;28;20359;-78
2021/12/15 03:44:04;;;;;;;18.33;9.65;;;8.00;99.90;;;;;;5036124;28;20021;-79
2021/12/15 03:46:30;;;;;;;19.45;10.45;;;8.00;99.90;;;;;;5036126;28;20033;-75
2021/12/15 03:48:56;;;;;;;14.57;8.32;;;7.90;99.90;;;;;;5036099;28;20022;-77
2021/12/15 03:51:23;;;;;;;18.65;10.27;;;7.90;99.90;;;;;;5036099;28;20108;-74
2021/12/15 03:53:49;;;;;;;17.83;10.13;;;7.90;99.90;;;;;;5036511;28;20466;-75
2021/12/15 03:56:15;;;;;;;20.70;11.00;;;7.90;99.90;;;;;;5035949;28;20022;-74
2021/12/15 03:58:41;;;;;;;18.17;9.60;;;8.00;99.90;;;;;;5035933;28;20022;-76
2021/12/15 04:01:14;;;;;;;16.98;9.57;;;8.10;99.90;;;;;;5035887;28;20083;-76
2021/12/15 04:03:43;;;;;;;17.17;10.15;;;8.20;99.90;;;;;;5036116;28;20095;-77
2021/12/15 04:06:14;;;;;;;17.80;9.25;;;8.20;99.90;;;;;;5035795;28;20032;-74
2021/12/15 04:08:40;;;;;;;16.55;9.02;;;8.10;99.90;;;;;;5035804;28;20021;-77
2021/12/15 04:11:09;;;;;;;18.25;9.57;;;8.10;99.90;;;;;;5035729;28;20099;-77
2021/12/15 04:13:35;;;;;;;16.70;9.82;;;8.00;99.90;;;;;;5035884;28;20087;-73
2021/12/15 04:16:07;;;;;;;15.35;8.93;;;7.90;99.90;;;;;;5035858;28;20457;-78
2021/12/15 04:18:35;;;;;;;20.83;9.88;;;7.90;99.90;;;;;;5035895;28;20024;-78
2021/12/15 04:21:01;;;;;;;15.18;9.05;;;7.90;99.90;;;;;;5035542;28;20462;-76
2021/12/15 04:23:27;;;;;;;18.50;10.25;;;7.90;99.90;;;;;;5035398;28;20032;-76
2021/12/15 04:25:55;;;;;;;16.95;9.57;;;7.80;99.90;;;;;;5035412;28;20022;-76
2021/12/15 04:28:24;;;;;;;18.15;10.32;;;7.70;99.90;;;;;;5035122;28;20046;-75
2021/12/15 04:30:56;;;;;;;20.00;10.98;;;7.70;99.90;;;;;;5035350;28;20029;-73
2021/12/15 04:33:45;;;;;;;19.17;10.75;;;7.70;99.90;;;;;;5035427;28;20024;-77
2021/12/15 04:36:13;;;;;;;18.38;10.35;;;7.70;99.90;;;;;;5035813;28;20021;-74
2021/12/15 04:38:41;;;;;;;18.90;10.82;;;7.70;99.90;;;;;;5035232;28;20049;-76
2021/12/15 04:41:11;;;;;;;16.77;10.85;;;7.80;99.90;;;;;;5035179;28;20025;-76
2021/12/15 04:43:40;;;;;;;17.98;9.93;;;7.80;99.90;;;;;;5035146;28;20021;-79
2021/12/15 04:46:08;;;;;;;19.05;10.88;;;7.70;99.90;;;;;;5035084;28;20030;-77
2021/12/15 04:48:35;;;;;;;18.52;10.27;;;7.70;99.90;;;;;;5035508;28;20022;-78
2021/12/15 04:51:01;;;;;;;18.15;10.13;;;7.70;99.90;;;;;;5034949;28;20072;-75
2021/12/15 04:53:27;;;;;;;18.52;10.98;;;7.70;99.90;;;;;;5034853;28;20017;-74
2021/12/15 04:55:53;;;;;;;19.60;11.20;;;7.70;99.90;;;;;;5034915;28;20385;-78
2021/12/15 04:58:19;;;;;;;20.00;10.98;;;7.70;99.90;;;;;;5034780;28;20037;-74
2021/12/15 05:00:52;;;;;;;18.58;10.13;;;7.80;99.90;;;;;;5034789;28;20028;-74
2021/12/15 05:03:18;;;;;;;18.60;10.40;;;7.80;99.90;;;;;;5035222;28;20032;-76
2021/12/15 05:05:44;;;;;;;18.20;10.32;;;7.90;99.90;;;;;;5034665;28;20482;-77
2021/12/15 05:08:10;;;;;;;17.73;10.73;;;7.90;99.90;;;;;;5034590;28;20028;-76
2021/12/15 05:10:36;;;;;;;18.77;10.75;;;7.90;99.90;;;;;;5034577;28;20029;-76
2021/12/15 05:13:03;;;;;;;17.13;9.35;;;7.90;99.90;;;;;;5034439;28;20104;-77
2021/12/15 05:15:29;;;;;;;17.23;10.02;;;7.90;99.90;;;;;;5035010;28;20025;-78
2021/12/15 05:17:55;;;;;;;15.43;9.48;;;7.90;99.90;;;;;;5034683;28;20021;-76
2021/12/15 05:20:23;;;;;;;17.33;10.30;;;7.80;99.90;;;;;;5034408;28;20025;-76
2021/12/15 05:22:50;;;;;;;20.50;10.23;;;7.90;99.90;;;;;;5034575;28;20517;-76
2021/12/15 05:25:16;;;;;;;18.20;10.52;;;7.90;99.90;;;;;;5034213;28;20037;-76
2021/12/15 05:27:42;;;;;;;16.95;9.73;;;7.90;99.90;;;;;;5033998;28;20160;-75
2021/12/15 05:30:11;;;;;;;20.42;10.38;;;7.90;99.90;;;;;;5034162;28;20494;-77
2021/12/15 05:32:37;;;;;;;16.70;9.95;;;7.90;99.90;;;;;;5034365;28;20118;-73
2021/12/15 05:35:04;;;;;;;17.58;9.65;;;7.90;99.90;;;;;;5034148;28;20064;-75
2021/12/15 05:37:30;;;;;;;18.48;10.75;;;7.70;99.90;;;;;;5034013;28;20624;-75
2021/12/15 05:39:56;;;;;;;17.25;10.18;;;7.60;99.90;;;;;;5033981;28;20053;-74
2021/12/15 05:42:23;;;;;;;17.38;10.55;;;7.60;99.90;;;;;;5034257;28;20020;-73
2021/12/15 05:44:50;;;;;;;20.02;11.32;;;7.60;99.90;;;;;;5033324;28;20539;-77
2021/12/15 05:47:20;;;;;;;19.73;11.30;;;7.50;99.90;;;;;;5033926;28;20029;-74
2021/12/15 05:49:47;;;;;;;21.40;12.00;;;7.50;99.90;;;;;;5032615;28;20025;-77
2021/12/15 05:52:13;;;;;;;20.13;11.52;;;7.50;99.90;;;;;;5033827;28;20018;-76
2021/12/15 05:54:40;;;;;;;20.25;11.32;;;7.50;99.90;;;;;;5034061;28;20033;-77
2021/12/15 05:57:06;;;;;;;21.88;12.18;;;7.50;99.90;;;;;;5033722;28;20029;-75
2021/12/15 05:59:31;;;;;;;19.50;10.45;;;7.50;99.90;;;;;;5032433;28;20152;-79
2021/12/15 06:01:57;;;;;;;20.70;11.45;;;7.50;99.90;;;;;;5032433;28;20029;-77
2021/12/15 06:04:23;;;;;;;20.73;11.65;;;7.50;99.90;;;;;;5033567;28;20531;-78
2021/12/15 06:06:49;;;;;;;22.00;13.07;;;7.50;99.90;;;;;;5033607;28;20100;-74
2021/12/15 06:09:15;;;;;;;20.02;11.55;;;7.50;99.90;;;;;;5034079;28;20018;-77
2021/12/15 06:11:43;;;;;;;22.08;12.82;;;7.60;99.90;;;;;;5033529;28;20029;-76
2021/12/15 06:14:09;;;;;;;21.45;11.98;;;7.50;99.90;;;;;;5033414;28;20032;-77
2021/12/15 06:16:36;;;;;;;21.95;12.40;;;7.50;99.90;;;;;;5033488;28;20026;-76
2021/12/15 06:19:03;;;;;;;21.17;12.10;;;7.40;99.90;;;;;;5033401;28;20013;-74
2021/12/15 06:21:31;;;;;;;25.25;13.60;;;7.50;99.90;;;;;;5032126;28;20033;-78
2021/12/15 06:23:58;;;;;;;22.85;12.52;;;7.50;99.90;;;;;;5033680;28;20025;-76
2021/12/15 06:26:24;;;;;;;23.60;12.98;;;7.50;99.90;;;;;;5032071;28;20029;-78
2021/12/15 06:28:49;;;;;;;25.45;13.65;;;7.30;99.90;;;;;;5032889;28;20599;-78
2021/12/15 06:31:17;;;;;;;22.48;12.65;;;7.40;99.90;;;;;;5033294;28;20096;-78
2021/12/15 06:33:45;;;;;;;25.58;13.50;;;7.40;99.90;;;;;;5033173;28;20053;-73
2021/12/15 06:36:14;;;;;;;23.55;12.82;;;7.40;99.90;;;;;;5033250;28;20498;-78
2021/12/15 06:38:44;;;;;;;26.73;14.43;;;7.40;99.90;;;;;;5031983;28;20124;-75
2021/12/15 06:41:11;;;;;;;25.23;13.43;;;7.40;99.90;;;;;;5032544;28;20457;-74
2021/12/15 06:43:37;;;;;;;24.95;13.82;;;7.40;99.90;;;;;;5033156;28;20026;-76
2021/12/15 06:59:26;;;;;;;31.70;16.25;;;7.40;99.90;;;;;;5037310;28;20028;-77
2021/12/15 07:01:53;;;;;;;34.05;17.15;;;7.40;99.90;;;;;;5037273;28;20448;-78
2021/12/15 07:04:20;;;;;;;35.75;18.95;;;7.30;99.90;;;;;;5036959;28;20018;-76
2021/12/15 07:06:47;;;;;;;37.30;19.45;;;7.20;99.90;;;;;;5037021;28;20043;-78
2021/12/15 07:09:14;;;;;;;30.63;16.58;;;7.40;99.90;;;;;;5036810;28;20436;-76
2021/12/15 07:11:40;;;;;;;35.47;18.45;;;7.40;99.90;;;;;;5036791;28;20079;-75
2021/12/15 07:14:06;;;;;;;31.80;17.42;;;7.50;99.90;;;;;;5036675;28;20029;-73
2021/12/15 07:16:33;;;;;;;30.15;17.30;;;7.40;99.90;;;;;;5037006;28;20033;-76
2021/12/15 07:19:18;;;;;;;30.02;16.38;;;7.50;99.90;;;;;;5036659;28;20452;-77
2021/12/15 07:21:54;;;;;;;30.75;17.45;;;7.50;99.90;;;;;;5035109;28;20116;-77
2021/12/15 07:24:21;;;;;;;33.35;18.58;;;7.40;99.90;;;;;;5035148;28;20049;-74
2021/12/15 07:26:48;;;;;;;34.15;18.45;;;7.50;99.90;;;;;;5035287;28;20401;-77
2021/12/15 07:29:14;;;;;;;34.53;18.70;;;7.40;99.90;;;;;;5036358;28;20080;-76
2021/12/15 07:31:40;;;;;;;36.92;19.60;;;7.40;99.90;;;;;;5036426;28;20105;-78
2021/12/15 07:34:05;;;;;;;36.55;18.92;;;7.40;99.90;;;;;;5036350;28;20101;-75
2021/12/15 07:36:31;;;;;;;34.30;19.02;;;7.40;99.90;;;;;;5036633;28;20083;-76
2021/12/15 07:38:58;;;;;;;32.67;18.90;;;7.50;99.90;;;;;;5036384;28;20033;-77
2021/12/15 07:41:29;;;;;;;32.60;17.67;;;7.50;99.90;;;;;;5036544;28;20104;-78
2021/12/15 07:43:59;;;;;;;33.70;18.25;;;7.50;99.90;;;;;;5034703;28;20025;-76
2021/12/15 07:46:25;;;;;;;32.15;17.85;;;7.50;99.90;;;;;;5036489;28;20358;-74
2021/12/15 07:48:51;;;;;;;34.08;18.80;;;7.50;99.90;;;;;;5036122;28;20481;-77
2021/12/15 07:51:17;;;;;;;34.20;19.08;;;7.60;99.90;;;;;;5036324;28;20033;-77
2021/12/15 07:53:43;;;;;;;34.22;18.92;;;7.50;99.90;;;;;;5035963;28;20025;-78
2021/12/15 07:56:10;;;;;;;31.33;18.85;;;7.30;99.90;;;;;;5035977;28;20049;-73
2021/12/15 07:58:36;;;;;;;29.80;16.50;;;7.30;99.90;;;;;;5034731;28;20370;-73
2021/12/15 08:01:04;;;;;;;28.08;15.82;;;7.30;99.90;;;;;;5035911;28;20032;-74
2021/12/15 08:03:31;;;;;;;30.17;18.52;;;7.30;99.90;;;;;;5035848;28;20100;-73
2021/12/15 08:05:58;;;;;;;31.65;18.25;;;7.30;99.90;;;;;;5036123;28;20113;-74
2021/12/15 08:08:23;;;;;;;32.75;17.58;;;7.20;99.90;;;;;;5035339;28;20021;-74
2021/12/15 08:10:56;;;;;;;33.35;18.60;;;7.30;99.90;;;;;;5035700;28;20496;-75
2021/12/15 08:13:23;;;;;;;31.00;17.20;;;7.20;99.90;;;;;;5035913;28;20075;-74
2021/12/15 08:15:48;;;;;;;31.13;17.08;;;7.30;99.90;;;;;;5035848;28;20104;-73
2021/12/15 08:18:14;;;;;;;29.45;17.10;;;7.30;99.90;;;;;;5035559;28;20089;-75
2021/12/15 08:20:41;;;;;;;31.15;18.08;;;7.30;99.90;;;;;;5035767;28;20097;-74
2021/12/15 08:23:07;;;;;;;31.10;18.58;;;7.30;99.90;;;;;;5035409;28;20434;-74
2021/12/15 08:25:35;;;;;;;39.10;20.95;;;7.30;99.90;;;;;;5035710;28;20033;-73
2021/12/15 08:28:02;;;;;;;37.67;20.55;;;7.30;99.90;;;;;;5035220;28;20510;-73
2021/12/15 08:30:29;;;;;;;33.45;18.63;;;7.20;99.90;;;;;;5035388;28;20402;-75
2021/12/15 08:33:00;;;;;;;35.55;19.27;;;7.10;99.90;;;;;;5035539;28;20031;-76
2021/12/15 08:35:30;;;;;;;38.78;21.77;;;7.20;99.90;;;;;;5035570;28;20018;-74
2021/12/15 08:37:56;;;;;;;42.08;21.13;;;7.20;99.90;;;;;;5035778;28;20021;-75
2021/12/15 08:40:24;;;;;;;38.15;21.30;;;7.20;99.90;;;;;;5035201;28;20029;-74
2021/12/15 08:42:50;;;;;;;38.58;21.90;;;7.30;99.90;;;;;;5035392;28;20487;-74
2021/12/15 08:45:16;;;;;;;36.25;20.27;;;7.40;99.90;;;;;;5035067;28;20029;-76
2021/12/15 08:47:42;;;;;;;35.92;19.08;;;7.30;99.90;;;;;;5035045;28;20478;-74
2021/12/15 08:50:12;;;;;;;37.20;20.85;;;7.30;99.90;;;;;;5034976;28;20034;-74
2021/12/15 08:52:38;;;;;;;41.63;22.17;;;7.30;99.90;;;;;;5034770;28;20132;-74
2021/12/15 08:55:05;;;;;;;35.40;19.55;;;7.30;99.90;;;;;;5034739;28;20108;-76
2021/12/15 08:57:31;;;;;;;35.45;18.83;;;7.40;99.90;;;;;;5035087;28;20014;-76
2021/12/15 08:59:57;;;;;;;34.53;18.75;;;7.30;99.90;;;;;;5034822;28;20076;-73
2021/12/15 09:02:23;;;;;;;32.25;18.17;;;7.40;99.90;;;;;;5034721;28;20010;-72
2021/12/15 09:04:49;;;;;;;31.40;17.75;;;7.40;99.90;;;;;;5034971;28;20470;-72
2021/12/15 09:07:15;;;;;;;34.42;17.63;;;7.40;99.90;;;;;;5034626;28;20021;-73
2021/12/15 09:09:41;;;;;;;31.65;17.02;;;7.30;99.90;;;;;;5034592;28;20025;-71
2021/12/15 09:12:08;;;;;;;32.03;17.52;;;7.30;99.90;;;;;;5034565;28;20375;-75
2021/12/15 09:14:34;;;;;;;30.35;16.63;;;7.20;99.90;;;;;;5034673;28;20064;-73
2021/12/15 09:17:01;;;;;;;28.85;17.00;;;7.30;99.90;;;;;;5034478;28;20509;-72
2021/12/15 09:19:27;;;;;;;29.80;16.15;;;7.20;99.90;;;;;;5033713;28;20021;-72
2021/12/15 09:21:55;;;;;;;30.98;17.52;;;7.30;99.90;;;;;;5034959;28;20024;-72
2021/12/15 09:24:22;;;;;;;34.90;18.35;;;7.30;99.90;;;;;;5034280;28;20021;-72
2021/12/15 09:26:48;;;;;;;32.83;16.13;;;7.20;99.90;;;;;;5034313;28;20027;-71
2021/12/15 09:29:14;;;;;;;27.35;15.80;;;7.10;99.90;;;;;;5034131;28;20520;-76
2021/12/15 09:31:40;;;;;;;28.67;15.70;;;7.20;99.90;;;;;;5034236;28;20101;-72
2021/12/15 09:34:08;;;;;;;27.70;16.80;;;7.30;99.90;;;;;;5034110;28;20537;-73
2021/12/15 09:36:34;;;;;;;30.50;17.65;;;7.30;99.90;;;;;;5034105;28;20041;-73
2021/12/15 09:39:10;;;;;;;29.05;17.05;;;7.30;99.90;;;;;;5034088;28;20022;-71
2021/12/15 09:41:36;;;;;;;32.95;17.65;;;7.30;99.90;;;;;;5034351;28;20022;-72
2021/12/15 09:44:08;;;;;;;31.90;17.92;;;7.30;99.90;;;;;;5033956;28;20545;-73
2021/12/15 09:57:47;;;;;;;34.78;18.88;;;7.30;99.90;;;;;;5033743;28;20032;-72
2021/12/15 10:03:04;;;;;;;38.45;20.75;;;7.50;99.90;;;;;;5033968;28;20052;-76
2021/12/15 10:05:46;;;;;;;29.58;16.60;;;7.60;99.90;;;;;;5033668;28;20032;-73
2021/12/15 10:19:26;;;;;;;28.10;14.95;;;7.70;99.90;;;;;;5033422;28;20028;-73
2021/12/15 10:22:08;;;;;;;27.83;15.60;;;7.70;99.90;;;;;;5033714;28;20022;-73
2021/12/15 10:24:45;;;;;;;26.08;15.43;;;7.70;99.90;;;;;;5032020;28;20056;-73
2021/12/15 10:27:14;;;;;;;24.85;14.10;;;7.70;99.90;;;;;;5033449;28;20026;-73
2021/12/15 10:30:21;;;;;;;28.75;15.50;;;7.60;99.90;;;;;;5033600;28;20025;-73
2021/12/15 10:32:51;;;;;;;28.63;15.93;;;7.50;99.90;;;;;;5032752;28;20065;-74
2021/12/15 10:35:27;;;;;;;31.30;16.70;;;7.50;99.90;;;;;;5033301;28;20013;-73
2021/12/15 10:38:16;;;;;;;30.95;17.55;;;7.60;99.90;;;;;;5033530;28;20057;-73
2021/12/15 10:40:50;;;;;;;28.67;17.15;;;7.70;99.90;;;;;;5033781;28;20407;-72
2021/12/15 10:43:17;;;;;;;30.77;17.35;;;7.70;99.90;;;;;;5033460;28;20033;-72
2021/12/15 10:45:52;;;;;;;30.92;16.83;;;7.70;99.90;;;;;;5033154;28;20037;-73
2021/12/15 10:48:35;;;;;;;32.30;17.38;;;7.70;99.90;;;;;;5033432;28;20080;-74
2021/12/15 10:51:21;;;;;;;30.83;16.85;;;7.40;99.90;;;;;;5031570;28;20030;-73
2021/12/15 10:53:47;;;;;;;30.85;16.63;;;7.50;99.90;;;;;;5033593;28;20436;-74
2021/12/15 10:56:17;;;;;;;29.63;16.42;;;7.50;99.90;;;;;;5033298;28;20470;-73
2021/12/15 10:58:50;;;;;;;34.08;19.77;;;7.70;99.90;;;;;;5033030;28;20025;-71
2021/12/15 11:01:42;;;;;;;28.33;16.65;;;7.70;99.90;;;;;;5033530;28;20025;-72
2021/12/15 11:04:22;;;;;;;28.17;16.05;;;7.80;99.90;;;;;;5033560;28;20055;-73
2021/12/15 11:07:14;;;;;;;29.50;17.17;;;7.80;99.90;;;;;;5032989;28;20037;-72
2021/12/15 11:09:58;;;;;;;26.05;14.82;;;7.80;99.90;;;;;;5033231;28;20041;-73
2021/12/15 11:12:49;;;;;;;27.35;15.75;;;7.90;99.90;;;;;;5033152;28;20485;-73
2021/12/15 11:15:23;;;;;;;23.67;14.23;;;7.90;99.90;;;;;;5033464;28;20042;-72
2021/12/15 11:17:52;;;;;;;28.00;16.13;;;7.80;99.90;;;;;;5033168;28;20164;-73
2021/12/15 11:20:23;;;;;;;26.25;14.70;;;7.80;99.90;;;;;;5032825;28;20067;-74
2021/12/15 11:22:52;;;;;;;25.75;14.32;;;7.80;99.90;;;;;;5033149;28;20034;-74
2021/12/15 11:25:24;;;;;;;27.67;14.67;;;7.80;99.90;;;;;;5033308;28;20022;-72
2021/12/15 11:27:53;;;;;;;24.00;12.75;;;7.80;99.90;;;;;;5032771;28;20060;-73
2021/12/15 11:30:33;;;;;;;22.37;12.67;;;7.80;99.90;;;;;;5032773;28;20060;-73
2021/12/15 11:33:06;;;;;;;21.83;12.30;;;7.80;99.90;;;;;;5032982;28;20036;-73
2021/12/15 11:35:38;;;;;;;26.70;15.20;;;7.80;99.90;;;;;;5032873;28;20387;-73
2021/12/15 11:38:25;;;;;;;25.92;14.45;;;7.80;99.90;;;;;;5032697;28;20390;-72
2021/12/15 11:40:57;;;;;;;26.23;15.13;;;7.70;99.90;;;;;;5032667;28;20390;-72
2021/12/15 11:43:26;;;;;;;28.75;15.90;;;7.60;99.90;;;;;;5035059;28;20029;-72
2021/12/15 11:45:52;;;;;;;28.65;15.90;;;7.70;99.90;;;;;;5036230;28;20026;-74
2021/12/15 11:48:25;;;;;;;24.75;14.15;;;7.70;99.90;;;;;;5036477;28;20497;-72
2021/12/15 11:50:53;;;;;;;27.27;15.35;;;7.70;99.90;;;;;;5036425;28;20022;-73
2021/12/15 11:53:40;;;;;;;27.92;14.27;;;7.70;99.90;;;;;;5036007;28;20036;-73
2021/12/15 11:56:13;;;;;;;29.10;16.17;;;7.70;99.90;;;;;;5036352;28;20029;-74
2021/12/15 11:58:39;;;;;;;27.98;15.20;;;7.70;99.90;;;;;;5035996;28;20553;-74
2021/12/15 12:01:04;;;;;;;26.95;14.57;;;7.70;99.90;;;;;;5035920;28;20052;-72
2021/12/15 12:03:30;;;;;;;24.80;15.18;;;7.70;99.90;;;;;;5035914;28;20027;-74
2021/12/15 12:05:57;;;;;;;27.80;13.63;;;7.70;99.90;;;;;;5036111;28;20025;-74
2021/12/15 12:08:23;;;;;;;30.13;15.93;;;7.70;99.90;;;;;;5035835;28;20390;-72
2021/12/15 12:10:51;;;;;;;24.60;13.45;;;7.70;99.90;;;;;;5035782;28;20087;-72
2021/12/15 12:13:24;;;;;;;25.55;14.27;;;7.80;99.90;;;;;;5035626;28;20095;-72
2021/12/15 12:15:56;;;;;;;25.75;13.40;;;7.70;99.90;;;;;;5035675;28;20025;-73
2021/12/15 12:18:25;;;;;;;25.55;13.40;;;7.70;99.90;;;;;;5035961;28;20026;-74
2021/12/15 12:21:00;;;;;;;26.05;15.20;;;7.70;99.90;;;;;;5035578;28;20029;-73
2021/12/15 12:23:28;;;;;;;24.33;14.25;;;7.70;99.90;;;;;;5035738;28;20484;-73
2021/12/15 12:26:03;;;;;;;28.98;16.92;;;7.90;99.90;;;;;;5035495;28;20076;-74
2021/12/15 12:28:32;;;;;;;26.02;15.40;;;8.00;99.90;;;;;;5035341;28;20395;-73
2021/12/15 12:31:20;;;;;;;25.27;14.73;;;8.00;99.90;;;;;;5034107;28;20405;-72
2021/12/15 12:33:46;;;;;;;27.40;15.07;;;7.90;99.90;;;;;;5035205;28;20168;-72
2021/12/15 12:36:14;;;;;;;24.88;14.60;;;7.90;99.90;;;;;;5035605;28;20473;-73
2021/12/15 12:38:50;;;;;;;25.08;14.10;;;7.90;99.90;;;;;;5036017;28;20010;-72
2021/12/15 12:41:20;;;;;;;21.30;11.77;;;8.00;99.90;;;;;;5035517;28;20467;-74
2021/12/15 12:43:50;;;;;;;20.23;11.77;;;8.00;99.90;;;;;;5035474;28;20033;-73
2021/12/15 12:46:26;;;;;;;;;;;8.00;99.90;;;;;;5036139;28;20036;-72
2021/12/15 12:59:59;;;;;;;22.30;12.55;;;8.00;99.90;;;;;;5034627;28;20413;-73
2021/12/15 13:02:32;;;;;;;21.05;12.55;;;7.90;99.90;;;;;;5034748;28;20032;-73
2021/12/15 13:04:58;;;;;;;24.60;13.35;;;7.90;99.90;;;;;;5035073;28;20044;-73
2021/12/15 13:07:50;;;;;;;20.25;12.25;;;7.90;99.90;;;;;;5034701;28;20505;-72
2021/12/15 13:10:19;;;;;;;22.63;11.80;;;8.00;99.90;;;;;;5034956;28;20025;-73
2021/12/15 13:12:47;;;;;;;20.60;12.15;;;8.00;99.90;;;;;;5034579;28;20064;-73
2021/12/15 13:15:22;;;;;;;20.75;12.43;;;8.00;99.90;;;;;;5035102;28;20366;-73
2021/12/15 13:17:59;;;;;;;20.80;12.30;;;8.10;99.90;;;;;;5034568;28;20486;-73
2021/12/15 13:20:28;;;;;;;21.25;11.75;;;8.00;99.90;;;;;;5032773;28;20056;-72
2021/12/15 13:23:07;;;;;;;20.35;11.98;;;7.90;99.90;;;;;;5034701;28;20032;-73
2021/12/15 13:31:15;;;;;;;21.75;12.52;;;7.90;99.90;;;;;;5034332;28;20032;-72
2021/12/15 13:33:47;;;;;;;22.70;12.02;;;7.80;99.90;;;;;;5034449;28;20064;-72
2021/12/15 13:36:21;;;;;;;20.10;11.73;;;7.70;99.90;;;;;;5034456;28;20473;-73
2021/12/15 13:38:49;;;;;;;21.20;12.25;;;7.60;99.90;;;;;;5034440;28;20030;-73
2021/12/15 13:44:16;;;;;;;21.38;12.52;;;7.70;99.90;;;;;;5033779;28;20040;-72
2021/12/15 13:46:44;;;;;;;20.63;11.80;;;7.70;99.90;;;;;;5034481;28;20025;-73
2021/12/15 13:49:18;;;;;;;19.40;11.93;;;7.70;99.90;;;;;;5033944;28;20033;-74
2021/12/15 13:52:20;;;;;;;21.55;12.57;;;7.70;99.90;;;;;;5034158;28;20108;-73
2021/12/15 13:54:48;;;;;;;26.58;14.27;;;7.60;99.90;;;;;;5033735;28;20478;-74
2021/12/15 13:57:14;;;;;;;24.92;15.20;;;7.60;99.90;;;;;;5033775;28;20020;-72
2021/12/15 14:00:01;;;;;;;27.35;15.43;;;7.70;99.90;;;;;;5034075;28;20025;-72
2021/12/15 14:02:36;;;;;;;26.58;15.13;;;7.70;99.90;;;;;;5034056;28;20021;-73
2021/12/15 14:05:05;;;;;;;24.85;13.02;;;7.70;99.90;;;;;;5033217;28;20026;-72
2021/12/15 14:07:30;;;;;;;24.90;14.10;;;7.70;99.90;;;;;;5033832;28;20021;-73
2021/12/15 14:09:59;;;;;;;24.77;14.55;;;7.80;99.90;;;;;;5033584;28;20026;-73
2021/12/15 14:12:49;;;;;;;25.25;13.52;;;7.80;99.90;;;;;;5033537;28;20394;-74
2021/12/15 14:15:14;;;;;;;24.92;13.70;;;7.80;99.90;;;;;;5033815;28;20428;-73
2021/12/15 14:17:41;;;;;;;28.00;15.55;;;7.80;99.90;;;;;;5033485;28;20035;-72
2021/12/15 14:20:13;;;;;;;27.60;15.10;;;7.90;99.90;;;;;;5033402;28;20049;-72
2021/12/15 14:22:41;;;;;;;23.40;13.75;;;7.90;99.90;;;;;;5033965;28;20099;-73
2021/12/15 14:25:07;;;;;;;25.88;14.52;;;8.00;99.90;;;;;;5033290;28;20026;-73
2021/12/15 14:27:33;;;;;;;27.00;15.18;;;7.90;99.90;;;;;;5033364;28;20053;-73